Aviation Digital Data Service (ADDS)

Output produced by METARs form (0351 UTC 20 October 2018)
found at http://www.aviationweather.gov/metar/data/
 
ESTA 200320Z AUTO 26007KT 9999 SCT100/// 10/04 Q1023
TAF ESTA 191701Z 1918/1922 VRB03KT 9999 FEW030